Time;durP1;ratioP1;P1;durP2;ratioP2;P2;SDS_P1;SDS_P2;PMS_P1;PMS_P2;Temp;Humidity;BMP_temperature;BMP_pressure;BME280_temperature;BME280_humidity;BME280_pressure;Samples;Min_cycle;Max_cycle;Signal;HPM_P1;HPM_P2
2022/01/06 00:00:13;;;;;;;8.68;2.40;;;2.50;99.90;;;1.75;100.00;96936.28;5004588;28;20038;-85
2022/01/06 00:02:40;;;;;;;8.18;2.25;;;2.60;99.90;;;1.50;100.00;96902.69;4983008;28;20042;-85
2022/01/06 00:05:07;;;;;;;7.57;1.95;;;2.60;99.90;;;1.79;100.00;96951.81;5003348;28;20129;-84
2022/01/06 00:07:33;;;;;;;13.60;2.80;;;2.60;99.90;;;1.77;100.00;96943.16;4986277;28;20293;-85
2022/01/06 00:09:59;;;;;;;9.10;2.55;;;2.60;99.90;;;1.62;100.00;96925.97;4988064;28;20415;-85
2022/01/06 00:12:35;;;;;;;6.05;2.10;;;2.60;99.90;;;1.68;100.00;96940.66;5000811;28;20030;-84
2022/01/06 00:15:23;;;;;;;8.18;2.30;;;2.60;99.90;;;1.71;100.00;96948.44;5003817;28;20499;-85
2022/01/06 00:25:35;;;;;;;5.60;2.05;;;2.50;99.90;;;1.62;100.00;96944.19;4988677;28;20038;-84
2022/01/06 00:28:01;;;;;;;9.95;2.35;;;2.60;99.90;;;1.52;100.00;96938.19;5006387;28;20117;-85
2022/01/06 00:30:28;;;;;;;9.10;1.98;;;2.50;99.90;;;1.45;100.00;96930.47;5011480;28;20052;-85
2022/01/06 00:32:54;;;;;;;8.18;2.53;;;2.50;99.90;;;1.41;100.00;96919.22;4986205;28;20245;-84
2022/01/06 00:35:20;;;;;;;10.18;2.40;;;2.60;99.90;;;1.61;100.00;96944.19;4993581;28;20520;-85
2022/01/06 00:37:46;;;;;;;8.48;2.40;;;2.50;99.90;;;1.62;100.00;96945.94;5002827;28;20121;-85
2022/01/06 00:40:12;;;;;;;5.75;1.95;;;2.60;99.90;;;1.77;100.00;96953.56;4999981;28;20065;-85
2022/01/06 00:42:39;;;;;;;5.43;2.25;;;2.60;99.90;;;1.74;100.00;96963.13;4986495;28;20195;-85
2022/01/06 00:45:05;;;;;;;3.85;1.95;;;2.60;99.90;;;1.75;100.00;96957.06;4988739;28;20079;-84
2022/01/06 00:47:31;;;;;;;6.45;2.35;;;2.60;99.90;;;1.70;100.00;96954.50;5001127;28;20459;-85
2022/01/06 00:49:57;;;;;;;7.15;2.50;;;2.60;99.90;;;1.75;100.00;96957.06;4986622;28;20080;-85
2022/01/06 00:52:22;;;;;;;9.20;2.60;;;2.60;99.90;;;1.70;100.00;96957.94;4989737;28;20116;-85
2022/01/06 00:54:48;;;;;;;6.65;2.22;;;2.60;99.90;;;1.51;100.00;96920.88;4982893;28;20030;-85
2022/01/06 00:57:14;;;;;;;6.90;2.05;;;2.60;99.90;;;1.64;100.00;96944.16;4974333;28;20487;-84
2022/01/06 00:59:40;;;;;;;11.15;2.50;;;2.60;99.90;;;1.62;100.00;96938.97;4999924;28;20384;-85
2022/01/06 01:02:05;;;;;;;10.40;2.40;;;2.60;99.90;;;1.45;100.00;96918.31;4986561;28;20117;-85
2022/01/06 01:04:31;;;;;;;6.18;2.38;;;2.50;99.90;;;1.43;100.00;96903.63;4971779;28;20037;-85
2022/01/06 01:06:57;;;;;;;10.93;2.55;;;2.50;99.90;;;1.69;100.00;96965.78;5001108;28;20037;-85
2022/01/06 01:09:22;;;;;;;5.15;2.10;;;2.60;99.90;;;1.54;100.00;96940.78;5004169;28;20034;-85
2022/01/06 01:11:48;;;;;;;4.80;2.28;;;2.50;99.90;;;1.60;100.00;96948.53;4995872;28;20488;-85
2022/01/06 01:14:19;;;;;;;6.43;2.35;;;2.50;99.90;;;1.66;100.00;96952.81;5003418;28;20037;-84
2022/01/06 01:17:00;;;;;;;10.30;2.70;;;2.60;99.90;;;1.74;100.00;96978.72;4976599;28;20092;-84
2022/01/06 01:19:29;;;;;;;7.53;2.42;;;2.60;99.90;;;1.73;100.00;96977.88;4972347;28;20479;-84
2022/01/06 01:21:56;;;;;;;4.80;2.13;;;2.60;99.90;;;1.74;100.00;96983.94;4988749;28;20069;-84
2022/01/06 01:24:23;;;;;;;6.32;2.38;;;2.60;99.90;;;1.78;100.00;96986.50;4999723;28;20495;-85
2022/01/06 01:26:49;;;;;;;5.90;2.47;;;2.60;99.90;;;1.68;100.00;96979.66;4988843;28;20084;-85
2022/01/06 01:29:18;;;;;;;6.85;2.30;;;2.60;99.90;;;1.56;100.00;96956.34;4985528;28;20046;-85
2022/01/06 01:31:52;;;;;;;9.05;2.20;;;2.60;99.90;;;1.66;100.00;96981.41;4988643;28;20498;-85
2022/01/06 01:34:23;;;;;;;9.25;1.80;;;2.60;99.90;;;1.62;100.00;96970.16;5000993;28;20041;-84
2022/01/06 01:36:50;;;;;;;6.43;2.20;;;2.60;99.90;;;1.69;100.00;96981.38;4987627;28;20033;-85
2022/01/06 01:39:17;;;;;;;10.50;2.42;;;2.60;99.90;;;1.80;100.00;96995.16;4984342;28;20663;-84
2022/01/06 01:41:43;;;;;;;9.48;2.20;;;2.60;99.90;;;1.62;100.00;96975.38;5001688;28;20479;-85
2022/01/06 01:44:13;;;;;;;7.85;2.50;;;2.60;99.90;;;1.64;100.00;96985.75;4985068;28;20454;-85
2022/01/06 01:46:44;;;;;;;4.45;1.90;;;2.60;99.90;;;1.71;100.00;96993.47;4984513;28;20056;-84
2022/01/06 01:49:27;;;;;;;5.75;2.05;;;2.60;99.90;;;1.75;100.00;96994.31;4983876;28;20022;-85
2022/01/06 01:51:53;;;;;;;7.50;2.20;;;2.60;99.90;;;1.62;100.00;97000.50;4984656;28;20062;-84
2022/01/06 01:54:19;;;;;;;6.63;2.25;;;2.50;99.90;;;1.60;100.00;96978.84;4984470;28;20068;-84
2022/01/06 01:56:45;;;;;;;7.60;2.58;;;2.50;99.90;;;1.59;100.00;97001.38;4987048;28;20120;-85
2022/01/06 01:59:13;;;;;;;10.65;2.53;;;2.50;99.90;;;1.48;100.00;97004.06;4999350;28;20396;-85
2022/01/06 02:01:41;;;;;;;5.93;2.30;;;2.40;99.90;;;1.31;100.00;96979.94;4988335;28;20038;-85
2022/01/06 02:04:07;;;;;;;6.05;2.22;;;2.40;99.90;;;1.49;100.00;97005.81;5001604;28;20022;-84
2022/01/06 02:06:33;;;;;;;14.00;2.30;;;2.40;99.90;;;1.34;100.00;96993.75;4990747;28;20033;-85
2022/01/06 02:09:00;;;;;;;6.13;2.35;;;2.40;99.90;;;1.31;100.00;96992.91;5005887;28;20064;-85
2022/01/06 02:11:26;;;;;;;4.70;2.58;;;2.40;99.90;;;1.36;100.00;97001.53;4998098;28;20034;-85
2022/01/06 02:13:55;;;;;;;8.45;2.97;;;2.40;99.90;;;1.42;100.00;97018.81;5015185;28;20084;-85
2022/01/06 02:16:27;;;;;;;10.18;2.30;;;2.30;99.90;;;1.37;100.00;97005.88;4991592;28;20076;-85
2022/01/06 02:18:54;;;;;;;5.97;2.17;;;2.40;99.90;;;1.38;100.00;97001.53;4994743;28;20025;-84
2022/01/06 02:21:20;;;;;;;5.78;2.33;;;2.30;99.90;;;1.44;100.00;97014.50;4982345;28;20053;-84
2022/01/06 02:23:46;;;;;;;7.53;2.63;;;2.40;99.90;;;1.41;100.00;97017.97;4977417;28;20048;-84
2022/01/06 02:26:12;;;;;;;9.40;2.72;;;2.30;99.90;;;1.24;100.00;96989.53;4985740;28;20440;-84
2022/01/06 02:28:40;;;;;;;6.80;2.15;;;2.30;99.90;;;1.41;100.00;97017.97;5009271;28;20391;-84
2022/01/06 02:31:06;;;;;;;11.48;2.60;;;2.30;99.90;;;1.30;100.00;97004.19;5015549;28;20030;-84
2022/01/06 02:33:32;;;;;;;7.10;2.35;;;2.30;99.90;;;1.25;100.00;97008.56;4975945;28;20076;-84
2022/01/06 02:35:58;;;;;;;6.60;2.38;;;2.30;99.90;;;1.26;100.00;97010.28;5023378;28;20034;-85
2022/01/06 02:38:24;;;;;;;5.38;2.50;;;2.20;99.90;;;1.29;100.00;97023.25;4983478;28;20462;-84
2022/01/06 02:40:50;;;;;;;7.95;2.55;;;2.20;99.90;;;1.22;100.00;97006.84;4994561;28;20036;-84
2022/01/06 02:43:19;;;;;;;5.00;2.40;;;2.20;99.90;;;1.30;100.00;97017.19;5013953;28;20030;-84
2022/01/06 02:45:46;;;;;;;9.48;2.47;;;2.20;99.90;;;1.27;100.00;97028.44;4992923;28;20476;-84
2022/01/06 02:48:14;;;;;;;7.75;2.28;;;2.20;99.90;;;1.33;100.00;97015.44;4994547;28;20026;-84
2022/01/06 02:50:43;;;;;;;5.50;2.20;;;2.20;99.90;;;1.25;100.00;97025.00;5016180;28;20037;-84
2022/01/06 02:53:11;;;;;;;9.75;2.38;;;2.20;99.90;;;1.22;100.00;97027.63;5032464;28;20060;-84
2022/01/06 02:55:47;;;;;;;9.20;2.60;;;2.10;99.90;;;1.08;100.00;96993.94;4994198;28;20060;-84
2022/01/06 02:58:13;;;;;;;7.28;2.40;;;2.10;99.90;;;1.27;100.00;97006.81;5008147;28;20029;-85
2022/01/06 03:00:39;;;;;;;7.10;2.72;;;2.20;99.90;;;1.15;100.00;96994.78;5008925;28;20033;-85
2022/01/06 03:03:05;;;;;;;5.15;2.33;;;2.20;99.90;;;1.28;100.00;97021.53;4992470;28;20120;-85
2022/01/06 03:05:30;;;;;;;8.50;2.20;;;2.30;99.90;;;1.35;100.00;97023.22;5013331;28;20030;-84
2022/01/06 03:07:56;;;;;;;8.02;2.60;;;2.30;99.90;;;1.42;100.00;97040.50;5011869;28;20026;-84
2022/01/06 03:10:23;;;;;;;6.65;2.17;;;2.30;99.90;;;1.34;100.00;97044.88;4994633;28;20030;-85
2022/01/06 03:12:49;;;;;;;5.00;2.22;;;2.30;99.90;;;1.37;100.00;97042.25;4991108;28;20030;-84
2022/01/06 03:15:18;;;;;;;10.80;2.40;;;2.30;99.90;;;1.52;100.00;97056.88;4977234;28;20025;-85
2022/01/06 03:17:49;;;;;;;5.03;1.90;;;2.40;99.90;;;1.51;100.00;97069.03;5008449;28;20109;-84
2022/01/06 03:20:17;;;;;;;8.38;2.13;;;2.40;99.90;;;1.31;100.00;97029.28;5007240;28;20117;-84
2022/01/06 03:22:43;;;;;;;6.05;2.10;;;2.40;99.90;;;1.48;100.00;97061.22;4976618;28;20022;-85
2022/01/06 03:25:12;;;;;;;6.25;1.85;;;2.40;99.90;;;1.61;100.00;97066.34;5010505;28;20423;-84
2022/01/06 03:27:39;;;;;;;5.72;2.30;;;2.50;99.90;;;0.92;100.00;96962.00;5006564;28;20473;-84
2022/01/06 03:30:10;;;;;;;5.07;1.95;;;2.50;99.90;;;1.79;100.00;97076.59;5005464;28;20034;-85
2022/01/06 03:32:36;;;;;;;6.88;2.00;;;2.50;99.90;;;1.73;100.00;97079.28;4988216;28;20463;-85
2022/01/06 03:35:04;;;;;;;9.32;2.63;;;2.60;99.90;;;1.63;100.00;97075.84;4979704;28;20025;-85
2022/01/06 03:37:30;;;;;;;10.48;2.65;;;2.60;99.90;;;1.59;100.00;97065.50;5007679;28;20080;-85
2022/01/06 03:39:55;;;;;;;4.53;2.10;;;2.60;99.90;;;1.61;100.00;97072.41;5005182;28;20059;-84
2022/01/06 03:42:21;;;;;;;6.32;2.33;;;2.60;99.90;;;1.49;100.00;97057.78;5007729;28;20483;-85
2022/01/06 03:44:49;;;;;;;6.50;2.25;;;2.50;99.90;;;1.49;100.00;97067.28;5012943;28;20391;-85
2022/01/06 03:47:14;;;;;;;5.53;2.40;;;2.50;99.90;;;1.51;100.00;97065.56;5011635;28;20032;-85
2022/01/06 03:49:40;;;;;;;7.53;1.85;;;2.50;99.90;;;1.55;100.00;97074.22;5010093;28;20038;-85
2022/01/06 03:52:06;;;;;;;9.38;2.60;;;2.40;99.90;;;1.41;100.00;97064.75;4977308;28;20030;-85
2022/01/06 03:54:32;;;;;;;9.00;2.63;;;2.40;99.90;;;1.40;100.00;97056.94;4974677;28;20502;-85
2022/01/06 03:56:59;;;;;;;5.30;2.30;;;2.40;99.90;;;1.31;100.00;97060.47;4991138;28;20026;-84
2022/01/06 03:59:25;;;;;;;6.43;2.70;;;2.40;99.90;;;1.19;100.00;97043.22;4973593;28;20014;-84
2022/01/06 04:01:51;;;;;;;5.03;2.33;;;2.30;99.90;;;1.32;100.00;97083.00;4992943;28;20407;-85
2022/01/06 04:04:16;;;;;;;11.38;2.17;;;2.20;99.90;;;1.09;100.00;97063.19;4989003;28;20049;-84
2022/01/06 04:06:43;;;;;;;8.43;2.70;;;2.10;99.90;;;0.97;100.00;97052.00;4990406;28;20193;-84
2022/01/06 04:09:09;;;;;;;10.52;2.90;;;2.10;99.90;;;1.16;100.00;97065.75;5007696;28;20030;-84
2022/01/06 04:11:35;;;;;;;5.57;2.40;;;2.10;99.90;;;1.17;100.00;97054.47;4988182;28;20033;-85
2022/01/06 04:14:00;;;;;;;11.00;2.22;;;2.20;99.90;;;1.28;100.00;97091.69;5007768;28;20025;-84
2022/01/06 04:16:28;;;;;;;11.80;2.78;;;2.20;99.90;;;1.22;100.00;97087.38;5008335;28;20040;-85
2022/01/06 04:18:54;;;;;;;8.88;2.47;;;2.20;99.90;;;1.03;100.00;97054.56;4989249;28;20025;-84
2022/01/06 04:21:19;;;;;;;5.57;2.35;;;2.20;99.90;;;1.34;100.00;97100.28;4990705;28;20616;-85
2022/01/06 04:23:48;;;;;;;4.55;2.47;;;2.20;99.90;;;1.28;100.00;97076.94;5008992;28;20042;-84
2022/01/06 04:26:15;;;;;;;5.53;2.47;;;2.20;99.90;;;1.39;100.00;97102.03;5008054;28;20095;-84
2022/01/06 04:28:42;;;;;;;7.22;2.95;;;2.30;99.90;;;1.28;100.00;97089.09;4991682;28;20514;-84
2022/01/06 04:31:08;;;;;;;11.50;2.70;;;2.30;99.90;;;1.24;100.00;97085.63;4994441;28;20030;-84
2022/01/06 04:33:34;;;;;;;9.43;2.88;;;2.30;99.90;;;1.17;100.00;97081.34;4988886;28;20037;-84
2022/01/06 04:36:01;;;;;;;7.55;2.85;;;2.30;99.90;;;1.17;100.00;97081.34;4991315;28;20105;-85
2022/01/06 04:38:27;;;;;;;6.32;2.45;;;2.20;99.90;;;1.24;100.00;97092.53;5004847;28;20167;-84
2022/01/06 04:40:53;;;;;;;11.25;3.20;;;2.30;99.90;;;1.32;100.00;97109.81;4990744;28;20018;-84
2022/01/06 04:43:19;;;;;;;8.27;2.88;;;2.30;99.90;;;1.30;100.00;97115.91;4993040;28;20482;-84
2022/01/06 04:45:45;;;;;;;7.18;2.63;;;2.30;99.90;;;1.30;100.00;97103.78;4991772;28;20116;-84
2022/01/06 04:48:11;;;;;;;7.30;2.45;;;2.30;99.90;;;1.31;100.00;97120.22;4991459;28;20288;-84
2022/01/06 04:50:37;;;;;;;7.30;2.60;;;2.30;99.90;;;1.25;100.00;97115.91;4993075;28;20030;-84
2022/01/06 04:53:03;;;;;;;7.38;2.83;;;2.20;99.90;;;1.32;100.00;97128.00;5014035;28;20429;-84
2022/01/06 04:55:29;;;;;;;8.70;3.00;;;2.20;99.90;;;1.20;100.00;97117.66;4991592;28;20468;-84
2022/01/06 04:57:55;;;;;;;7.15;3.17;;;2.20;99.90;;;1.28;100.00;97125.44;5009384;28;20032;-85
2022/01/06 05:00:20;;;;;;;9.90;2.58;;;2.30;99.90;;;1.24;100.00;97116.81;5007916;28;20034;-84
2022/01/06 05:02:46;;;;;;;8.85;3.22;;;2.20;99.90;;;1.27;100.00;97116.78;5010586;28;20541;-85
2022/01/06 05:05:15;;;;;;;9.48;3.35;;;2.20;99.90;;;1.27;100.00;97127.16;4990033;28;20104;-85
2022/01/06 05:07:42;;;;;;;8.60;3.10;;;2.20;99.90;;;1.32;100.00;97130.59;5002329;28;20036;-84
2022/01/06 05:10:09;;;;;;;3.83;2.40;;;2.20;99.90;;;1.33;100.00;97132.34;4994500;28;20022;-84
2022/01/06 05:12:43;;;;;;;7.30;2.85;;;2.20;99.90;;;1.28;100.00;97148.84;5011669;28;20030;-84
2022/01/06 05:15:10;;;;;;;6.45;2.50;;;2.20;99.90;;;1.09;100.00;97115.13;5007980;28;20065;-85
2022/01/06 05:17:36;;;;;;;9.35;2.33;;;2.20;99.90;;;1.18;100.00;97145.41;4993915;28;20089;-84
2022/01/06 05:20:04;;;;;;;7.97;2.40;;;2.10;99.90;;;1.22;100.00;97157.53;5010210;28;20046;-84
2022/01/06 05:22:32;;;;;;;7.78;2.40;;;2.10;99.90;;;1.06;100.00;97135.94;4977091;28;20234;-84
2022/01/06 05:24:57;;;;;;;7.40;2.42;;;2.10;99.90;;;1.16;100.00;97138.50;5006131;28;20489;-84
2022/01/06 05:27:23;;;;;;;7.00;2.08;;;2.10;99.90;;;1.01;100.00;97118.66;5008924;28;20044;-85
2022/01/06 05:29:49;;;;;;;6.00;1.95;;;2.10;99.90;;;1.10;100.00;97157.56;5008985;28;20057;-84
2022/01/06 05:32:15;;;;;;;8.02;2.13;;;2.10;99.90;;;1.03;100.00;97154.13;5006380;28;20046;-84
2022/01/06 05:34:40;;;;;;;7.10;2.58;;;2.00;99.90;;;0.89;100.00;97135.97;5007489;28;20032;-85
2022/01/06 05:37:06;;;;;;;8.18;2.70;;;2.00;99.90;;;1.08;100.00;97173.16;5004634;28;20080;-84
2022/01/06 05:39:32;;;;;;;7.68;2.55;;;2.00;99.90;;;1.04;100.00;97157.56;5004543;28;20507;-84
2022/01/06 05:41:58;;;;;;;6.97;2.20;;;2.00;99.90;;;1.01;100.00;97152.41;4994287;28;20042;-84
2022/01/06 05:44:25;;;;;;;7.00;2.50;;;2.00;99.90;;;1.05;100.00;97157.56;5006245;28;20033;-84
2022/01/06 05:46:51;;;;;;;9.73;2.42;;;2.00;99.90;;;1.14;100.00;97174.84;5005382;28;20092;-84
2022/01/06 05:49:16;;;;;;;7.80;2.67;;;2.00;99.90;;;1.08;100.00;97165.34;4990251;28;20030;-84
2022/01/06 05:51:42;;;;;;;10.15;2.50;;;2.10;99.90;;;1.11;100.00;97170.56;4992580;28;20044;-84
2022/01/06 05:54:08;;;;;;;7.13;2.33;;;2.10;99.90;;;1.14;100.00;97165.31;4990220;28;20032;-83
2022/01/06 05:56:34;;;;;;;6.47;2.42;;;2.10;99.90;;;1.25;100.00;97178.28;4992993;28;20580;-84
2022/01/06 05:58:59;;;;;;;6.07;2.42;;;2.20;99.90;;;1.25;100.00;97165.28;4993924;28;20038;-84
2022/01/06 06:01:25;;;;;;;7.40;2.70;;;2.30;99.90;;;1.29;100.00;97180.00;5015194;28;20034;-84
2022/01/06 06:03:52;;;;;;;8.45;2.60;;;2.20;99.90;;;1.26;100.00;97180.00;4995338;28;20105;-84
2022/01/06 06:06:18;;;;;;;9.13;2.80;;;2.30;99.90;;;1.53;100.00;97185.97;4998756;28;20052;-84
2022/01/06 06:08:43;;;;;;;6.50;2.33;;;2.40;99.90;;;1.47;100.00;97180.78;4992624;28;20054;-85
2022/01/06 06:11:09;;;;;;;9.73;2.30;;;2.40;99.90;;;1.41;100.00;97184.28;5018028;28;20519;-85
2022/01/06 06:13:35;;;;;;;5.68;2.50;;;2.40;99.90;;;1.31;100.00;97160.09;5013855;28;20026;-84
2022/01/06 06:16:00;;;;;;;6.82;2.58;;;2.40;99.90;;;1.37;100.00;97160.94;5013014;28;20484;-84
2022/01/06 06:18:26;;;;;;;10.45;2.25;;;2.40;99.90;;;1.31;100.00;97164.38;4991429;28;20037;-84
2022/01/06 06:20:52;;;;;;;8.38;2.25;;;2.40;99.90;;;1.47;100.00;97205.06;4980109;28;20401;-84
2022/01/06 06:23:18;;;;;;;6.00;2.20;;;2.40;99.90;;;1.31;100.00;97180.88;4997646;28;20250;-84
2022/01/06 06:25:44;;;;;;;9.55;3.28;;;2.40;99.90;;;1.35;100.00;97192.09;5011059;28;20050;-85
2022/01/06 06:28:09;;;;;;;7.38;2.42;;;2.40;99.90;;;1.41;100.00;97199.88;4995852;28;20026;-85
2022/01/06 06:30:36;;;;;;;7.30;2.38;;;2.30;99.90;;;1.23;100.00;97164.44;4977844;28;20487;-83
2022/01/06 06:33:02;;;;;;;8.32;2.47;;;2.40;99.90;;;1.49;100.00;97210.22;4993443;28;20507;-84
2022/01/06 06:35:29;;;;;;;5.32;2.05;;;2.40;99.90;;;1.46;100.00;97207.66;4978547;28;20534;-84
2022/01/06 06:37:55;;;;;;;10.23;2.33;;;2.40;99.90;;;1.43;100.00;97221.50;4993686;28;20026;-84
2022/01/06 06:40:23;;;;;;;5.80;2.10;;;2.30;99.90;;;1.40;100.00;97224.16;5009533;28;20018;-84
2022/01/06 06:42:50;;;;;;;6.43;2.35;;;2.30;99.90;;;1.31;100.00;97218.94;4992123;28;20403;-85
2022/01/06 06:45:17;;;;;;;9.05;2.38;;;2.30;99.90;;;1.29;100.00;97221.59;4993367;28;20044;-84
2022/01/06 06:47:42;;;;;;;6.80;2.42;;;2.30;99.90;;;1.21;100.00;97212.94;5012859;28;20030;-85
2022/01/06 06:50:09;;;;;;;8.65;2.60;;;2.20;99.90;;;1.13;100.00;97212.97;4990416;28;20075;-85
2022/01/06 06:52:34;;;;;;;8.25;2.20;;;2.20;99.90;;;1.14;100.00;97230.25;4988385;28;20107;-84
2022/01/06 06:55:00;;;;;;;9.05;3.00;;;2.10;99.90;;;1.00;100.00;97221.63;5009447;28;20132;-85
2022/01/06 06:57:26;;;;;;;6.53;2.50;;;2.10;99.90;;;1.01;100.00;97225.97;4993632;28;20026;-84
2022/01/06 06:59:53;;;;;;;9.23;2.75;;;2.10;99.90;;;1.19;100.00;97256.25;5011652;28;20038;-85
2022/01/06 07:02:19;;;;;;;9.63;2.85;;;2.10;99.90;;;1.06;100.00;97228.53;4992408;28;20539;-85
2022/01/06 07:04:44;;;;;;;7.90;2.42;;;2.10;99.90;;;1.04;100.00;97225.09;5005182;28;20072;-85
2022/01/06 07:07:11;;;;;;;10.95;3.47;;;2.10;99.90;;;1.27;100.00;97243.22;5012121;28;20036;-85
2022/01/06 07:09:36;;;;;;;8.45;2.67;;;2.20;99.90;;;1.23;100.00;97241.50;5011764;28;20025;-85
2022/01/06 07:12:02;;;;;;;9.43;2.80;;;2.20;99.90;;;1.28;100.00;97251.00;4979130;28;20036;-85
2022/01/06 07:14:28;;;;;;;9.05;2.95;;;2.30;99.90;;;1.31;100.00;97253.63;4997630;28;20034;-85
2022/01/06 07:16:54;;;;;;;10.52;3.00;;;2.30;99.90;;;1.45;100.00;97260.50;4996092;28;20022;-85
2022/01/06 07:19:19;;;;;;;9.38;2.80;;;2.30;99.90;;;1.20;100.00;97233.72;4993970;28;20077;-85
2022/01/06 07:21:45;;;;;;;7.15;2.42;;;2.30;99.90;;;1.06;100.00;97223.34;5000970;28;20407;-84
2022/01/06 07:24:11;;;;;;;8.57;2.60;;;2.30;99.90;;;1.13;100.00;97243.25;4996418;28;20034;-84
2022/01/06 07:26:36;;;;;;;12.38;3.30;;;2.30;99.90;;;1.31;100.00;97273.50;4988053;28;20057;-83
2022/01/06 07:29:02;;;;;;;7.13;2.33;;;2.30;99.90;;;1.28;100.00;97256.22;5029717;28;20063;-85
2022/01/06 07:31:28;;;;;;;6.30;2.33;;;2.30;99.90;;;1.40;100.00;97270.03;4992610;28;20262;-85
2022/01/06 07:33:54;;;;;;;7.45;2.63;;;2.40;99.90;;;1.43;100.00;97265.69;4995430;28;20068;-85
2022/01/06 07:36:19;;;;;;;8.88;2.70;;;2.40;99.90;;;1.43;100.00;97265.69;4998905;28;20084;-85
2022/01/06 07:38:45;;;;;;;8.00;2.85;;;2.40;99.90;;;1.33;100.00;97241.47;4988371;28;20480;-85
2022/01/06 07:41:11;;;;;;;11.98;2.67;;;2.40;99.90;;;1.44;100.00;97275.22;5008416;28;20026;-85
2022/01/06 07:43:37;;;;;;;9.07;2.78;;;2.40;99.90;;;1.53;100.00;97289.94;4991957;28;20125;-84
2022/01/06 07:46:04;;;;;;;8.73;2.40;;;2.40;99.90;;;1.21;100.00;97262.28;4975549;28;20096;-85
2022/01/06 07:48:47;;;;;;;11.45;2.63;;;2.40;99.90;;;1.43;100.00;97298.63;4985496;28;20562;-84
2022/01/06 07:51:13;;;;;;;6.28;2.67;;;2.40;99.90;;;1.35;100.00;97303.84;4991570;28;20405;-84
2022/01/06 07:53:39;;;;;;;9.75;2.55;;;2.30;99.90;;;1.19;100.00;97307.34;4974551;28;20026;-84
2022/01/06 07:56:04;;;;;;;9.38;2.97;;;2.10;99.90;;;1.16;100.00;97299.53;5005916;28;20084;-85
2022/01/06 07:58:30;;;;;;;10.80;3.97;;;2.00;99.90;;;0.88;100.00;97277.06;4976474;28;20045;-85
2022/01/06 08:00:56;;;;;;;10.65;2.88;;;2.00;99.90;;;0.95;100.00;97315.13;5010633;28;20506;-85
2022/01/06 08:03:21;;;;;;;11.15;3.35;;;1.90;99.90;;;0.49;100.00;97252.84;4988992;28;20029;-85
2022/01/06 08:05:47;;;;;;;7.18;2.80;;;1.80;99.90;;;0.83;100.00;97322.06;5011272;28;20053;-85
2022/01/06 08:08:13;;;;;;;14.38;3.10;;;1.70;99.90;;;0.73;100.00;97297.81;5006828;28;20037;-85
2022/01/06 08:10:39;;;;;;;6.93;2.90;;;1.70;99.90;;;0.60;100.00;97302.16;4987007;28;20045;-85
2022/01/06 08:13:04;;;;;;;8.38;2.95;;;1.70;99.90;;;0.61;100.00;97308.19;4991505;28;20032;-85
2022/01/06 08:15:30;;;;;;;6.88;2.58;;;1.60;99.90;;;0.59;100.00;97310.78;4990786;28;20084;-85
2022/01/06 08:17:56;;;;;;;10.68;3.05;;;1.60;99.90;;;0.59;100.00;97308.19;4991230;28;20029;-85
2022/01/06 08:20:21;;;;;;;6.22;3.10;;;1.60;99.90;;;0.66;100.00;97327.22;4988408;28;20328;-85
2022/01/06 08:22:47;;;;;;;6.10;2.97;;;1.60;99.90;;;0.78;100.00;97329.84;5004490;28;20038;-85
2022/01/06 08:25:13;;;;;;;8.98;3.10;;;1.60;99.90;;;0.79;100.00;97338.50;4989076;28;20048;-85
2022/01/06 08:27:39;;;;;;;13.82;3.75;;;1.70;99.90;;;0.80;100.00;97329.84;5003121;28;20069;-85
2022/01/06 08:30:06;;;;;;;10.55;3.35;;;1.70;99.90;;;0.84;100.00;97324.63;4984605;28;20026;-85
2022/01/06 08:32:32;;;;;;;10.40;2.97;;;1.80;99.90;;;0.86;100.00;97338.50;5001877;28;20419;-85
2022/01/06 08:34:57;;;;;;;9.73;3.00;;;1.80;99.90;;;0.87;100.00;97329.00;4975798;28;20033;-87
2022/01/06 08:37:23;;;;;;;9.80;3.00;;;1.80;99.90;;;0.90;100.00;97336.78;4984672;28;20041;-85
2022/01/06 08:39:49;;;;;;;9.63;3.55;;;1.80;99.90;;;0.87;100.00;97339.38;4986773;28;20101;-85
2022/01/06 08:42:14;;;;;;;9.57;3.35;;;1.80;99.90;;;0.76;100.00;97308.22;4975067;28;20422;-85
2022/01/06 08:44:41;;;;;;;6.72;2.78;;;1.80;99.90;;;1.02;100.00;97330.72;4989274;28;20025;-86
2022/01/06 08:47:09;;;;;;;14.27;3.03;;;1.90;99.90;;;1.09;100.00;97354.06;4987920;28;20033;-85
2022/01/06 08:49:35;;;;;;;15.18;3.55;;;1.90;99.90;;;1.06;100.00;97335.03;4985784;28;20470;-85
2022/01/06 08:52:02;;;;;;;9.27;3.63;;;2.00;99.90;;;1.02;100.00;97322.91;4984563;28;20064;-85
2022/01/06 08:54:28;;;;;;;9.60;3.22;;;2.10;99.90;;;0.92;100.00;97319.47;4985445;28;20029;-85
2022/01/06 08:56:53;;;;;;;16.95;3.65;;;2.10;99.90;;;1.17;100.00;97356.69;4969718;28;20021;-85
2022/01/06 08:59:19;;;;;;;6.13;2.97;;;2.10;99.90;;;1.17;100.00;97345.41;4990504;28;20494;-85
2022/01/06 09:01:45;;;;;;;12.95;4.03;;;2.10;99.90;;;1.19;100.00;97348.91;4967760;28;20037;-86
2022/01/06 09:04:11;;;;;;;12.77;3.72;;;2.20;99.90;;;1.18;100.00;97354.94;4988684;28;20038;-86
2022/01/06 09:06:36;;;;;;;8.13;3.30;;;2.20;99.90;;;1.22;100.00;97364.47;4972589;28;20049;-86
2022/01/06 09:09:02;;;;;;;11.48;3.75;;;2.10;99.90;;;1.21;100.00;97368.81;5004384;28;20370;-86
2022/01/06 09:11:28;;;;;;;7.95;3.20;;;2.20;99.90;;;1.19;100.00;97360.16;4983948;28;20583;-86
2022/01/06 09:13:54;;;;;;;9.38;3.00;;;2.20;99.90;;;1.27;100.00;97373.13;5006173;28;20120;-85
2022/01/06 09:16:20;;;;;;;10.85;3.22;;;2.20;99.90;;;1.27;100.00;97376.56;4980870;28;20034;-85
2022/01/06 09:18:45;;;;;;;7.50;3.53;;;2.20;99.90;;;1.32;100.00;97386.97;5007427;28;20061;-86
2022/01/06 09:21:11;;;;;;;11.57;3.35;;;2.20;99.90;;;1.23;100.00;97356.66;4984774;28;20023;-85
2022/01/06 09:23:37;;;;;;;11.85;3.65;;;2.30;99.90;;;1.33;100.00;97374.00;4971770;28;20467;-85
2022/01/06 09:26:03;;;;;;;9.38;3.20;;;2.30;99.90;;;1.39;100.00;97382.66;4973395;28;20036;-86
2022/01/06 09:28:29;;;;;;;7.40;2.85;;;2.40;99.90;;;1.38;100.00;97383.50;4984727;28;20040;-86
2022/01/06 09:30:56;;;;;;;7.63;2.90;;;2.40;99.90;;;1.53;100.00;97384.38;5002051;28;20030;-86
2022/01/06 09:33:23;;;;;;;6.80;2.75;;;2.50;99.90;;;1.53;100.00;97368.78;4991513;28;20026;-85
2022/01/06 09:35:51;;;;;;;9.43;3.63;;;2.60;99.90;;;1.88;100.00;97398.16;4967725;28;20443;-85
2022/01/06 09:38:17;;;;;;;10.65;3.60;;;2.80;99.90;;;2.34;100.00;97402.34;5009544;28;20092;-85
2022/01/06 09:40:44;;;;;;;12.68;3.15;;;3.00;99.90;;;2.24;100.00;97399.78;4987576;28;20037;-85
2022/01/06 09:43:13;;;;;;;9.32;2.97;;;3.10;99.90;;;2.17;100.00;97378.97;4993567;28;20399;-85
2022/01/06 09:45:41;;;;;;;11.60;3.10;;;3.20;99.90;;;2.23;100.00;97386.78;4986866;28;20091;-85
2022/01/06 09:48:08;;;;;;;11.68;2.72;;;3.20;99.90;;;2.32;100.00;97411.91;5002854;28;20026;-86
2022/01/06 09:50:37;;;;;;;7.47;2.83;;;3.20;99.90;;;2.17;100.00;97402.41;5000759;28;20048;-86
2022/01/06 09:53:03;;;;;;;7.45;2.83;;;3.20;99.90;;;2.28;100.00;97424.06;5007694;28;20169;-86
2022/01/06 09:55:29;;;;;;;6.30;2.50;;;3.20;99.90;;;2.13;100.00;97396.34;5009296;28;20029;-86
2022/01/06 09:57:58;;;;;;;8.40;2.60;;;3.20;99.90;;;2.36;100.00;97413.63;5006917;28;20021;-86
2022/01/06 10:00:28;;;;;;;6.25;2.63;;;3.30;99.90;;;2.24;100.00;97391.09;4988124;28;20626;-85
2022/01/06 10:02:58;;;;;;;5.82;2.83;;;3.30;99.90;;;2.53;100.00;97421.34;4988082;28;20030;-85
2022/01/06 10:05:25;;;;;;;8.60;2.47;;;3.40;99.90;;;2.39;100.00;97392.78;4992455;28;20029;-86
2022/01/06 10:07:54;;;;;;;7.82;2.63;;;3.50;99.90;;;2.64;100.00;97409.16;4988092;28;20038;-85
2022/01/06 10:10:27;;;;;;;8.60;3.22;;;3.60;99.90;;;2.62;100.00;97397.84;4989628;28;20026;-85
2022/01/06 10:13:05;;;;;;;8.77;2.70;;;3.60;99.90;;;2.77;100.00;97434.25;4971955;28;20128;-85
2022/01/06 10:15:32;;;;;;;11.13;2.95;;;3.70;99.90;;;2.83;100.00;97428.13;4974744;28;20026;-86
2022/01/06 10:17:57;;;;;;;8.30;2.70;;;3.70;99.90;;;2.73;100.00;97405.59;5005166;28;20017;-86
2022/01/06 10:20:27;;;;;;;7.10;2.55;;;3.80;99.90;;;2.86;100.00;97425.53;5005065;28;20458;-86
2022/01/06 10:22:58;;;;;;;9.38;2.78;;;3.80;99.90;;;2.72;100.00;97419.53;4988274;28;20038;-85
2022/01/06 10:25:28;;;;;;;7.50;2.58;;;3.70;99.90;;;2.56;100.00;97396.16;4972159;28;20163;-85
2022/01/06 10:27:56;;;;;;;9.05;3.05;;;3.70;99.90;;;2.72;100.00;97414.31;4993197;28;20399;-85
2022/01/06 10:30:25;;;;;;;8.07;2.70;;;3.70;99.90;;;2.83;100.00;97434.19;5005879;28;20646;-85